sensor_id;sensor_type;location;lat;lon;timestamp;temperature;humidity
39277;DHT22;63149;48.086;-1.606;2022-12-07T06:01:50;1.50;99.90
39277;DHT22;63149;48.086;-1.606;2022-12-07T06:04:17;1.40;99.90
39277;DHT22;63149;48.086;-1.606;2022-12-07T06:06:45;1.40;99.90
39277;DHT22;63149;48.086;-1.606;2022-12-07T06:09:12;1.40;99.90
39277;DHT22;63149;48.086;-1.606;2022-12-07T06:11:39;1.50;99.90
39277;DHT22;63149;48.086;-1.606;2022-12-07T06:14:24;1.50;99.90
39277;DHT22;63149;48.086;-1.606;2022-12-07T06:16:52;1.50;99.90
39277;DHT22;63149;48.086;-1.606;2022-12-07T06:19:19;1.50;99.90
39277;DHT22;63149;48.086;-1.606;2022-12-07T06:21:46;1.40;99.90
39277;DHT22;63149;48.086;-1.606;2022-12-07T06:24:14;1.50;99.90
39277;DHT22;63149;48.086;-1.606;2022-12-07T06:26:41;1.40;99.90
39277;DHT22;63149;48.086;-1.606;2022-12-07T06:29:09;1.40;99.90
39277;DHT22;63149;48.086;-1.606;2022-12-07T06:31:37;1.40;99.90
39277;DHT22;63149;48.086;-1.606;2022-12-07T06:34:08;1.40;99.90
39277;DHT22;63149;48.086;-1.606;2022-12-07T06:36:36;1.30;99.90
39277;DHT22;63149;48.086;-1.606;2022-12-07T06:39:04;1.30;99.90
39277;DHT22;63149;48.086;-1.606;2022-12-07T06:41:31;1.30;99.90
39277;DHT22;63149;48.086;-1.606;2022-12-07T06:43:58;1.30;99.90
39277;DHT22;63149;48.086;-1.606;2022-12-07T06:46:25;1.20;99.90
39277;DHT22;63149;48.086;-1.606;2022-12-07T06:48:52;1.30;99.90
39277;DHT22;63149;48.086;-1.606;2022-12-07T06:51:21;1.20;99.90
39277;DHT22;63149;48.086;-1.606;2022-12-07T06:53:48;1.20;99.90
39277;DHT22;63149;48.086;-1.606;2022-12-07T06:56:15;1.20;99.90
39277;DHT22;63149;48.086;-1.606;2022-12-07T06:58:42;1.20;99.90
39277;DHT22;63149;48.086;-1.606;2022-12-07T07:01:10;1.20;99.90
39277;DHT22;63149;48.086;-1.606;2022-12-07T07:03:37;1.20;99.90
39277;DHT22;63149;48.086;-1.606;2022-12-07T07:06:05;1.20;99.90
39277;DHT22;63149;48.086;-1.606;2022-12-07T07:08:34;1.20;99.90
39277;DHT22;63149;48.086;-1.606;2022-12-07T07:11:01;1.20;99.90
39277;DHT22;63149;48.086;-1.606;2022-12-07T07:13:28;1.10;99.90
39277;DHT22;63149;48.086;-1.606;2022-12-07T07:15:55;1.10;99.90
39277;DHT22;63149;48.086;-1.606;2022-12-07T07:18:22;1.10;99.90
39277;DHT22;63149;48.086;-1.606;2022-12-07T07:20:50;1.10;99.90
39277;DHT22;63149;48.086;-1.606;2022-12-07T07:23:17;1.10;99.90
39277;DHT22;63149;48.086;-1.606;2022-12-07T07:25:46;1.10;99.90
39277;DHT22;63149;48.086;-1.606;2022-12-07T07:28:13;1.20;99.90
39277;DHT22;63149;48.086;-1.606;2022-12-07T07:30:40;1.10;99.90
39277;DHT22;63149;48.086;-1.606;2022-12-07T07:33:07;1.10;99.90
39277;DHT22;63149;48.086;-1.606;2022-12-07T07:35:34;1.10;99.90
39277;DHT22;63149;48.086;-1.606;2022-12-07T07:38:01;1.20;99.90
39277;DHT22;63149;48.086;-1.606;2022-12-07T07:40:29;1.20;99.90
39277;DHT22;63149;48.086;-1.606;2022-12-07T07:42:58;1.20;99.90
39277;DHT22;63149;48.086;-1.606;2022-12-07T07:45:26;1.20;99.90
39277;DHT22;63149;48.086;-1.606;2022-12-07T07:47:53;1.10;99.90
39277;DHT22;63149;48.086;-1.606;2022-12-07T07:50:20;1.10;99.90
39277;DHT22;63149;48.086;-1.606;2022-12-07T07:52:48;1.20;99.90
39277;DHT22;63149;48.086;-1.606;2022-12-07T07:55:15;1.10;99.90
39277;DHT22;63149;48.086;-1.606;2022-12-07T07:57:42;1.20;99.90
39277;DHT22;63149;48.086;-1.606;2022-12-07T08:00:13;1.20;99.90
39277;DHT22;63149;48.086;-1.606;2022-12-07T08:02:40;1.20;99.90
39277;DHT22;63149;48.086;-1.606;2022-12-07T08:05:08;1.20;99.90
39277;DHT22;63149;48.086;-1.606;2022-12-07T08:07:36;1.20;99.90
39277;DHT22;63149;48.086;-1.606;2022-12-07T08:10:03;1.20;99.90
39277;DHT22;63149;48.086;-1.606;2022-12-07T08:12:30;1.20;99.90
39277;DHT22;63149;48.086;-1.606;2022-12-07T08:14:57;1.20;99.90
39277;DHT22;63149;48.086;-1.606;2022-12-07T08:17:26;1.20;99.90
39277;DHT22;63149;48.086;-1.606;2022-12-07T08:19:53;1.20;99.90
39277;DHT22;63149;48.086;-1.606;2022-12-07T08:22:19;1.20;99.90
39277;DHT22;63149;48.086;-1.606;2022-12-07T08:24:46;1.20;99.90
39277;DHT22;63149;48.086;-1.606;2022-12-07T08:27:13;1.20;99.90
39277;DHT22;63149;48.086;-1.606;2022-12-07T08:29:40;1.10;99.90
39277;DHT22;63149;48.086;-1.606;2022-12-07T08:32:07;1.10;99.90
39277;DHT22;63149;48.086;-1.606;2022-12-07T08:34:36;1.10;99.90
39277;DHT22;63149;48.086;-1.606;2022-12-07T08:37:03;1.10;99.90
39277;DHT22;63149;48.086;-1.606;2022-12-07T08:39:30;1.10;99.90
39277;DHT22;63149;48.086;-1.606;2022-12-07T08:41:57;1.10;99.90
39277;DHT22;63149;48.086;-1.606;2022-12-07T08:44:24;1.10;99.90
39277;DHT22;63149;48.086;-1.606;2022-12-07T08:46:53;1.20;99.90
39277;DHT22;63149;48.086;-1.606;2022-12-07T08:49:25;1.20;99.90
39277;DHT22;63149;48.086;-1.606;2022-12-07T08:51:55;1.20;99.90
39277;DHT22;63149;48.086;-1.606;2022-12-07T08:54:22;1.20;99.90
39277;DHT22;63149;48.086;-1.606;2022-12-07T08:56:50;1.30;99.90
39277;DHT22;63149;48.086;-1.606;2022-12-07T08:59:18;1.20;99.90
39277;DHT22;63149;48.086;-1.606;2022-12-07T09:01:45;1.20;99.90
39277;DHT22;63149;48.086;-1.606;2022-12-07T09:04:12;1.30;99.90
39277;DHT22;63149;48.086;-1.606;2022-12-07T09:06:40;1.30;99.90
39277;DHT22;63149;48.086;-1.606;2022-12-07T09:09:09;1.30;99.90
39277;DHT22;63149;48.086;-1.606;2022-12-07T09:11:36;1.30;99.90
39277;DHT22;63149;48.086;-1.606;2022-12-07T09:14:04;1.40;99.90
39277;DHT22;63149;48.086;-1.606;2022-12-07T09:16:31;1.40;99.90
39277;DHT22;63149;48.086;-1.606;2022-12-07T09:18:58;1.40;99.90
39277;DHT22;63149;48.086;-1.606;2022-12-07T09:21:25;1.40;99.90
39277;DHT22;63149;48.086;-1.606;2022-12-07T09:23:52;1.50;99.90
39277;DHT22;63149;48.086;-1.606;2022-12-07T09:26:20;1.50;99.90
39277;DHT22;63149;48.086;-1.606;2022-12-07T09:28:47;1.50;99.90
39277;DHT22;63149;48.086;-1.606;2022-12-07T09:31:14;1.50;99.90
39277;DHT22;63149;48.086;-1.606;2022-12-07T09:33:41;1.60;99.90
39277;DHT22;63149;48.086;-1.606;2022-12-07T09:36:08;1.60;99.90
39277;DHT22;63149;48.086;-1.606;2022-12-07T09:38:35;1.60;99.90
39277;DHT22;63149;48.086;-1.606;2022-12-07T09:41:05;1.60;99.90
39277;DHT22;63149;48.086;-1.606;2022-12-07T09:43:35;1.60;99.90
39277;DHT22;63149;48.086;-1.606;2022-12-07T09:46:03;1.60;99.90
39277;DHT22;63149;48.086;-1.606;2022-12-07T09:48:33;1.60;99.90
39277;DHT22;63149;48.086;-1.606;2022-12-07T09:51:02;1.70;99.90
39277;DHT22;63149;48.086;-1.606;2022-12-07T09:53:37;1.70;99.90
39277;DHT22;63149;48.086;-1.606;2022-12-07T09:56:05;1.80;99.90
39277;DHT22;63149;48.086;-1.606;2022-12-07T09:58:33;1.80;99.90
39277;DHT22;63149;48.086;-1.606;2022-12-07T10:01:05;1.80;99.90
39277;DHT22;63149;48.086;-1.606;2022-12-07T10:03:38;1.80;99.90
39277;DHT22;63149;48.086;-1.606;2022-12-07T10:06:06;1.80;99.90
39277;DHT22;63149;48.086;-1.606;2022-12-07T10:08:33;1.80;99.90
39277;DHT22;63149;48.086;-1.606;2022-12-07T10:11:02;1.90;99.90
39277;DHT22;63149;48.086;-1.606;2022-12-07T10:13:42;1.90;99.90
39277;DHT22;63149;48.086;-1.606;2022-12-07T10:16:31;2.00;99.90
39277;DHT22;63149;48.086;-1.606;2022-12-07T10:19:18;2.00;99.90
39277;DHT22;63149;48.086;-1.606;2022-12-07T10:22:10;2.00;99.90
39277;DHT22;63149;48.086;-1.606;2022-12-07T10:24:37;2.00;99.90
39277;DHT22;63149;48.086;-1.606;2022-12-07T10:27:09;2.00;99.90
39277;DHT22;63149;48.086;-1.606;2022-12-07T10:29:47;2.00;99.90
39277;DHT22;63149;48.086;-1.606;2022-12-07T10:32:29;1.90;99.90
39277;DHT22;63149;48.086;-1.606;2022-12-07T10:35:19;1.90;99.90
39277;DHT22;63149;48.086;-1.606;2022-12-07T10:37:46;2.00;99.90
39277;DHT22;63149;48.086;-1.606;2022-12-07T10:40:35;1.90;99.90
39277;DHT22;63149;48.086;-1.606;2022-12-07T10:43:04;1.90;99.90
39277;DHT22;63149;48.086;-1.606;2022-12-07T10:45:35;1.80;99.90
39277;DHT22;63149;48.086;-1.606;2022-12-07T10:48:12;1.90;99.90
39277;DHT22;63149;48.086;-1.606;2022-12-07T10:51:01;1.90;99.90
39277;DHT22;63149;48.086;-1.606;2022-12-07T10:53:52;1.90;99.90
39277;DHT22;63149;48.086;-1.606;2022-12-07T10:56:35;1.90;99.90
39277;DHT22;63149;48.086;-1.606;2022-12-07T10:59:39;1.90;99.90
39277;DHT22;63149;48.086;-1.606;2022-12-07T11:02:20;1.90;99.90
39277;DHT22;63149;48.086;-1.606;2022-12-07T11:04:59;1.90;99.90
39277;DHT22;63149;48.086;-1.606;2022-12-07T11:07:38;1.90;99.90
39277;DHT22;63149;48.086;-1.606;2022-12-07T11:10:13;2.00;99.90
39277;DHT22;63149;48.086;-1.606;2022-12-07T11:12:56;2.00;99.90
39277;DHT22;63149;48.086;-1.606;2022-12-07T11:15:36;2.00;99.90
39277;DHT22;63149;48.086;-1.606;2022-12-07T11:18:15;2.00;99.90
39277;DHT22;63149;48.086;-1.606;2022-12-07T11:20:52;2.10;99.90
39277;DHT22;63149;48.086;-1.606;2022-12-07T11:23:26;2.10;99.90
39277;DHT22;63149;48.086;-1.606;2022-12-07T11:26:02;2.20;99.90
39277;DHT22;63149;48.086;-1.606;2022-12-07T11:28:44;2.20;99.90
39277;DHT22;63149;48.086;-1.606;2022-12-07T11:31:20;2.20;99.90
39277;DHT22;63149;48.086;-1.606;2022-12-07T11:33:54;2.20;99.90
39277;DHT22;63149;48.086;-1.606;2022-12-07T11:36:36;2.30;99.90
39277;DHT22;63149;48.086;-1.606;2022-12-07T11:39:07;2.30;99.90
39277;DHT22;63149;48.086;-1.606;2022-12-07T11:41:38;2.40;99.90
39277;DHT22;63149;48.086;-1.606;2022-12-07T11:44:11;2.50;99.90
39277;DHT22;63149;48.086;-1.606;2022-12-07T11:46:49;2.50;99.90
39277;DHT22;63149;48.086;-1.606;2022-12-07T11:49:23;2.50;99.90
39277;DHT22;63149;48.086;-1.606;2022-12-07T11:51:54;2.60;99.90
39277;DHT22;63149;48.086;-1.606;2022-12-07T11:54:26;2.60;99.90
39277;DHT22;63149;48.086;-1.606;2022-12-07T11:56:56;2.60;99.90
39277;DHT22;63149;48.086;-1.606;2022-12-07T11:59:27;2.60;99.90
39277;DHT22;63149;48.086;-1.606;2022-12-07T12:01:58;2.60;99.90
39277;DHT22;63149;48.086;-1.606;2022-12-07T12:04:34;2.70;99.90
39277;DHT22;63149;48.086;-1.606;2022-12-07T12:07:06;2.60;99.90
39277;DHT22;63149;48.086;-1.606;2022-12-07T12:09:39;2.70;99.90
39277;DHT22;63149;48.086;-1.606;2022-12-07T12:12:24;2.70;99.90
39277;DHT22;63149;48.086;-1.606;2022-12-07T12:15:03;2.80;99.90
39277;DHT22;63149;48.086;-1.606;2022-12-07T12:20:36;2.90;99.90
39277;DHT22;63149;48.086;-1.606;2022-12-07T12:23:11;2.90;99.90
39277;DHT22;63149;48.086;-1.606;2022-12-07T12:25:41;3.00;99.90
39277;DHT22;63149;48.086;-1.606;2022-12-07T12:28:20;3.00;99.90
39277;DHT22;63149;48.086;-1.606;2022-12-07T12:31:05;3.00;99.90
39277;DHT22;63149;48.086;-1.606;2022-12-07T12:33:33;3.00;99.90
39277;DHT22;63149;48.086;-1.606;2022-12-07T12:36:25;3.00;99.90
39277;DHT22;63149;48.086;-1.606;2022-12-07T12:39:09;3.00;99.90
39277;DHT22;63149;48.086;-1.606;2022-12-07T12:42:00;3.00;99.90
39277;DHT22;63149;48.086;-1.606;2022-12-07T12:44:40;3.20;99.90
39277;DHT22;63149;48.086;-1.606;2022-12-07T12:50:28;3.30;99.90
39277;DHT22;63149;48.086;-1.606;2022-12-07T12:56:04;3.40;99.90
39277;DHT22;63149;48.086;-1.606;2022-12-07T12:58:37;3.40;99.90
39277;DHT22;63149;48.086;-1.606;2022-12-07T13:04:21;3.50;99.90
39277;DHT22;63149;48.086;-1.606;2022-12-07T13:06:49;3.40;99.90
39277;DHT22;63149;48.086;-1.606;2022-12-07T13:09:20;3.50;99.90
39277;DHT22;63149;48.086;-1.606;2022-12-07T13:11:54;3.50;99.90
39277;DHT22;63149;48.086;-1.606;2022-12-07T13:17:57;3.50;99.90
39277;DHT22;63149;48.086;-1.606;2022-12-07T13:20:54;3.60;99.90
39277;DHT22;63149;48.086;-1.606;2022-12-07T13:23:33;3.70;99.90
39277;DHT22;63149;48.086;-1.606;2022-12-07T13:26:16;3.80;99.90
39277;DHT22;63149;48.086;-1.606;2022-12-07T13:28:45;3.90;99.90
39277;DHT22;63149;48.086;-1.606;2022-12-07T13:31:25;4.00;99.90
39277;DHT22;63149;48.086;-1.606;2022-12-07T13:33:56;4.10;99.90
39277;DHT22;63149;48.086;-1.606;2022-12-07T13:36:25;4.30;99.90
39277;DHT22;63149;48.086;-1.606;2022-12-07T13:38:54;4.30;99.90
39277;DHT22;63149;48.086;-1.606;2022-12-07T13:41:22;4.40;99.90
39277;DHT22;63149;48.086;-1.606;2022-12-07T13:43:54;4.50;99.90
39277;DHT22;63149;48.086;-1.606;2022-12-07T13:46:26;4.50;99.90
39277;DHT22;63149;48.086;-1.606;2022-12-07T13:48:56;4.50;99.90
39277;DHT22;63149;48.086;-1.606;2022-12-07T13:51:25;4.50;99.90
39277;DHT22;63149;48.086;-1.606;2022-12-07T13:53:54;4.60;99.90
39277;DHT22;63149;48.086;-1.606;2022-12-07T13:56:25;4.50;99.90
39277;DHT22;63149;48.086;-1.606;2022-12-07T13:58:54;4.50;99.90
39277;DHT22;63149;48.086;-1.606;2022-12-07T14:01:21;4.50;99.90
39277;DHT22;63149;48.086;-1.606;2022-12-07T14:03:48;4.50;99.90
39277;DHT22;63149;48.086;-1.606;2022-12-07T14:06:24;4.60;99.90
39277;DHT22;63149;48.086;-1.606;2022-12-07T14:09:18;4.50;99.90
39277;DHT22;63149;48.086;-1.606;2022-12-07T14:11:45;4.50;99.90
39277;DHT22;63149;48.086;-1.606;2022-12-07T14:14:17;4.40;99.90
39277;DHT22;63149;48.086;-1.606;2022-12-07T14:16:55;4.40;99.90
39277;DHT22;63149;48.086;-1.606;2022-12-07T14:19:42;4.40;99.90
39277;DHT22;63149;48.086;-1.606;2022-12-07T14:22:22;4.40;99.90
39277;DHT22;63149;48.086;-1.606;2022-12-07T14:24:50;4.40;99.90
39277;DHT22;63149;48.086;-1.606;2022-12-07T14:27:19;4.40;99.90
39277;DHT22;63149;48.086;-1.606;2022-12-07T14:29:47;4.40;99.90
39277;DHT22;63149;48.086;-1.606;2022-12-07T14:32:23;4.30;99.90
39277;DHT22;63149;48.086;-1.606;2022-12-07T14:34:55;4.40;99.90
39277;DHT22;63149;48.086;-1.606;2022-12-07T14:37:23;4.40;99.90
39277;DHT22;63149;48.086;-1.606;2022-12-07T14:39:50;4.40;99.90
39277;DHT22;63149;48.086;-1.606;2022-12-07T14:42:17;4.40;99.90
39277;DHT22;63149;48.086;-1.606;2022-12-07T14:44:44;4.50;99.90
39277;DHT22;63149;48.086;-1.606;2022-12-07T14:47:12;4.50;99.90
39277;DHT22;63149;48.086;-1.606;2022-12-07T14:49:39;4.50;99.90
39277;DHT22;63149;48.086;-1.606;2022-12-07T14:52:12;4.50;99.90
39277;DHT22;63149;48.086;-1.606;2022-12-07T14:54:41;4.50;99.90
39277;DHT22;63149;48.086;-1.606;2022-12-07T14:57:09;4.50;99.90
39277;DHT22;63149;48.086;-1.606;2022-12-07T14:59:37;4.50;99.90
39277;DHT22;63149;48.086;-1.606;2022-12-07T15:02:04;4.50;99.90
39277;DHT22;63149;48.086;-1.606;2022-12-07T15:04:33;4.50;99.90
39277;DHT22;63149;48.086;-1.606;2022-12-07T15:07:01;4.50;99.90
39277;DHT22;63149;48.086;-1.606;2022-12-07T15:09:28;4.50;99.90
39277;DHT22;63149;48.086;-1.606;2022-12-07T15:11:55;4.50;99.90
39277;DHT22;63149;48.086;-1.606;2022-12-07T15:14:22;4.50;99.90
39277;DHT22;63149;48.086;-1.606;2022-12-07T15:16:49;4.60;99.90
39277;DHT22;63149;48.086;-1.606;2022-12-07T15:19:17;4.50;99.90
39277;DHT22;63149;48.086;-1.606;2022-12-07T15:21:46;4.50;99.90
39277;DHT22;63149;48.086;-1.606;2022-12-07T15:24:13;4.60;99.90
39277;DHT22;63149;48.086;-1.606;2022-12-07T15:26:41;4.60;99.90
39277;DHT22;63149;48.086;-1.606;2022-12-07T15:29:09;4.60;99.90
39277;DHT22;63149;48.086;-1.606;2022-12-07T15:31:37;4.60;99.90
39277;DHT22;63149;48.086;-1.606;2022-12-07T15:34:04;4.60;99.90
39277;DHT22;63149;48.086;-1.606;2022-12-07T15:36:33;4.60;99.90
39277;DHT22;63149;48.086;-1.606;2022-12-07T15:39:01;4.70;99.90
39277;DHT22;63149;48.086;-1.606;2022-12-07T15:41:28;4.60;99.90
39277;DHT22;63149;48.086;-1.606;2022-12-07T15:43:55;4.70;99.90
39277;DHT22;63149;48.086;-1.606;2022-12-07T15:46:41;4.70;99.90
39277;DHT22;63149;48.086;-1.606;2022-12-07T15:49:12;4.70;99.90
39277;DHT22;63149;48.086;-1.606;2022-12-07T15:51:40;4.70;99.90
39277;DHT22;63149;48.086;-1.606;2022-12-07T15:54:11;4.70;99.90
39277;DHT22;63149;48.086;-1.606;2022-12-07T15:56:38;4.70;99.90
39277;DHT22;63149;48.086;-1.606;2022-12-07T15:59:05;4.70;99.90
39277;DHT22;63149;48.086;-1.606;2022-12-07T16:01:32;4.70;99.90
39277;DHT22;63149;48.086;-1.606;2022-12-07T16:03:59;4.70;99.90
39277;DHT22;63149;48.086;-1.606;2022-12-07T16:06:25;4.70;99.90
39277;DHT22;63149;48.086;-1.606;2022-12-07T16:08:53;4.70;99.90
39277;DHT22;63149;48.086;-1.606;2022-12-07T16:11:21;4.70;99.90
39277;DHT22;63149;48.086;-1.606;2022-12-07T16:13:49;4.60;99.90
39277;DHT22;63149;48.086;-1.606;2022-12-07T16:16:17;4.60;99.90
39277;DHT22;63149;48.086;-1.606;2022-12-07T16:18:45;4.60;99.90
39277;DHT22;63149;48.086;-1.606;2022-12-07T16:21:13;4.60;99.90
39277;DHT22;63149;48.086;-1.606;2022-12-07T16:23:41;4.50;99.90
39277;DHT22;63149;48.086;-1.606;2022-12-07T16:26:10;4.50;99.90
39277;DHT22;63149;48.086;-1.606;2022-12-07T16:28:39;4.40;99.90
39277;DHT22;63149;48.086;-1.606;2022-12-07T16:31:08;4.40;99.90
39277;DHT22;63149;48.086;-1.606;2022-12-07T16:33:36;4.30;99.90
39277;DHT22;63149;48.086;-1.606;2022-12-07T16:36:05;4.30;99.90
39277;DHT22;63149;48.086;-1.606;2022-12-07T16:38:32;4.30;99.90
39277;DHT22;63149;48.086;-1.606;2022-12-07T16:40:59;4.30;99.90
39277;DHT22;63149;48.086;-1.606;2022-12-07T16:43:26;4.20;99.90
39277;DHT22;63149;48.086;-1.606;2022-12-07T16:45:54;4.20;99.90
39277;DHT22;63149;48.086;-1.606;2022-12-07T16:48:21;4.10;99.90
39277;DHT22;63149;48.086;-1.606;2022-12-07T16:50:48;4.00;99.90
39277;DHT22;63149;48.086;-1.606;2022-12-07T16:53:15;4.00;99.90
39277;DHT22;63149;48.086;-1.606;2022-12-07T16:55:44;4.10;99.90
39277;DHT22;63149;48.086;-1.606;2022-12-07T16:58:12;4.00;99.90
39277;DHT22;63149;48.086;-1.606;2022-12-07T17:00:40;4.00;99.90
39277;DHT22;63149;48.086;-1.606;2022-12-07T17:03:09;3.90;99.90
39277;DHT22;63149;48.086;-1.606;2022-12-07T17:05:38;3.80;99.90
39277;DHT22;63149;48.086;-1.606;2022-12-07T17:08:05;3.80;99.90
39277;DHT22;63149;48.086;-1.606;2022-12-07T17:10:34;3.80;99.90
39277;DHT22;63149;48.086;-1.606;2022-12-07T17:13:02;3.60;99.90
39277;DHT22;63149;48.086;-1.606;2022-12-07T17:15:57;3.70;99.90
39277;DHT22;63149;48.086;-1.606;2022-12-07T17:18:27;3.70;99.90
39277;DHT22;63149;48.086;-1.606;2022-12-07T17:20:54;3.70;99.90
39277;DHT22;63149;48.086;-1.606;2022-12-07T17:23:21;3.60;99.90
39277;DHT22;63149;48.086;-1.606;2022-12-07T17:25:49;3.70;99.90
39277;DHT22;63149;48.086;-1.606;2022-12-07T17:28:16;3.60;99.90
39277;DHT22;63149;48.086;-1.606;2022-12-07T17:30:43;3.50;99.90
39277;DHT22;63149;48.086;-1.606;2022-12-07T17:33:10;3.60;99.90
39277;DHT22;63149;48.086;-1.606;2022-12-07T17:35:39;3.50;99.90
39277;DHT22;63149;48.086;-1.606;2022-12-07T17:38:06;3.50;99.90
39277;DHT22;63149;48.086;-1.606;2022-12-07T17:40:33;3.40;99.90
39277;DHT22;63149;48.086;-1.606;2022-12-07T17:43:00;3.40;99.90
39277;DHT22;63149;48.086;-1.606;2022-12-07T17:45:27;3.30;99.90
39277;DHT22;63149;48.086;-1.606;2022-12-07T17:47:54;3.10;99.90
39277;DHT22;63149;48.086;-1.606;2022-12-07T17:50:21;3.20;99.90
39277;DHT22;63149;48.086;-1.606;2022-12-07T17:53:11;3.10;99.90
39277;DHT22;63149;48.086;-1.606;2022-12-07T17:55:37;3.00;99.90
39277;DHT22;63149;48.086;-1.606;2022-12-07T17:58:04;3.10;99.90
39277;DHT22;63149;48.086;-1.606;2022-12-07T18:00:32;3.00;99.90
39277;DHT22;63149;48.086;-1.606;2022-12-07T18:03:04;3.00;99.90
39277;DHT22;63149;48.086;-1.606;2022-12-07T18:05:34;3.10;99.90
39277;DHT22;63149;48.086;-1.606;2022-12-07T18:08:01;3.00;99.90
39277;DHT22;63149;48.086;-1.606;2022-12-07T18:10:30;2.90;99.90
39277;DHT22;63149;48.086;-1.606;2022-12-07T18:12:57;2.90;99.90
39277;DHT22;63149;48.086;-1.606;2022-12-07T18:15:38;2.90;99.90
39277;DHT22;63149;48.086;-1.606;2022-12-07T18:18:05;2.90;99.90
39277;DHT22;63149;48.086;-1.606;2022-12-07T18:20:32;2.80;99.90
39277;DHT22;63149;48.086;-1.606;2022-12-07T18:22:59;2.80;99.90
39277;DHT22;63149;48.086;-1.606;2022-12-07T18:25:26;2.80;99.90
39277;DHT22;63149;48.086;-1.606;2022-12-07T18:27:54;2.70;99.90
39277;DHT22;63149;48.086;-1.606;2022-12-07T18:30:21;2.60;99.90
39277;DHT22;63149;48.086;-1.606;2022-12-07T18:32:48;2.60;99.90
39277;DHT22;63149;48.086;-1.606;2022-12-07T18:35:15;2.60;99.90
39277;DHT22;63149;48.086;-1.606;2022-12-07T18:37:42;2.60;99.90
39277;DHT22;63149;48.086;-1.606;2022-12-07T18:40:10;2.60;99.90
39277;DHT22;63149;48.086;-1.606;2022-12-07T18:42:37;2.60;99.90
39277;DHT22;63149;48.086;-1.606;2022-12-07T18:45:06;2.60;99.90
39277;DHT22;63149;48.086;-1.606;2022-12-07T18:47:33;2.30;99.90
39277;DHT22;63149;48.086;-1.606;2022-12-07T18:50:00;2.20;99.90
39277;DHT22;63149;48.086;-1.606;2022-12-07T18:52:27;2.30;99.90
39277;DHT22;63149;48.086;-1.606;2022-12-07T18:54:54;2.30;99.90
39277;DHT22;63149;48.086;-1.606;2022-12-07T18:57:21;2.30;99.90
39277;DHT22;63149;48.086;-1.606;2022-12-07T18:59:48;2.30;99.90
39277;DHT22;63149;48.086;-1.606;2022-12-07T19:02:17;2.40;99.90
39277;DHT22;63149;48.086;-1.606;2022-12-07T19:04:44;2.30;99.90
39277;DHT22;63149;48.086;-1.606;2022-12-07T19:07:11;2.20;99.90
39277;DHT22;63149;48.086;-1.606;2022-12-07T19:09:38;2.30;99.90
39277;DHT22;63149;48.086;-1.606;2022-12-07T19:12:08;2.20;99.90
39277;DHT22;63149;48.086;-1.606;2022-12-07T19:14:37;2.00;99.90
39277;DHT22;63149;48.086;-1.606;2022-12-07T19:17:06;2.00;99.90
39277;DHT22;63149;48.086;-1.606;2022-12-07T19:19:37;2.00;99.90
39277;DHT22;63149;48.086;-1.606;2022-12-07T19:22:05;2.10;99.90
39277;DHT22;63149;48.086;-1.606;2022-12-07T19:24:32;2.10;99.90
39277;DHT22;63149;48.086;-1.606;2022-12-07T19:26:59;2.10;99.90
39277;DHT22;63149;48.086;-1.606;2022-12-07T19:29:28;2.10;99.90
39277;DHT22;63149;48.086;-1.606;2022-12-07T19:31:56;1.80;99.90
39277;DHT22;63149;48.086;-1.606;2022-12-07T19:34:23;1.80;99.90
39277;DHT22;63149;48.086;-1.606;2022-12-07T19:36:51;1.80;99.90
39277;DHT22;63149;48.086;-1.606;2022-12-07T19:39:18;1.90;99.90
39277;DHT22;63149;48.086;-1.606;2022-12-07T19:41:46;1.80;99.90
39277;DHT22;63149;48.086;-1.606;2022-12-07T19:44:14;1.80;99.90
39277;DHT22;63149;48.086;-1.606;2022-12-07T19:46:42;1.80;99.90
39277;DHT22;63149;48.086;-1.606;2022-12-07T19:49:11;1.80;99.90
39277;DHT22;63149;48.086;-1.606;2022-12-07T19:51:41;1.60;99.90
39277;DHT22;63149;48.086;-1.606;2022-12-07T19:54:11;1.70;99.90
39277;DHT22;63149;48.086;-1.606;2022-12-07T19:56:39;1.70;99.90
39277;DHT22;63149;48.086;-1.606;2022-12-07T19:59:06;1.40;99.90
39277;DHT22;63149;48.086;-1.606;2022-12-07T20:01:33;1.40;99.90
39277;DHT22;63149;48.086;-1.606;2022-12-07T20:04:04;1.50;99.90
39277;DHT22;63149;48.086;-1.606;2022-12-07T20:06:32;1.60;99.90
39277;DHT22;63149;48.086;-1.606;2022-12-07T20:08:59;1.40;99.90
39277;DHT22;63149;48.086;-1.606;2022-12-07T20:11:27;1.40;99.90
39277;DHT22;63149;48.086;-1.606;2022-12-07T20:14:12;1.50;99.90
39277;DHT22;63149;48.086;-1.606;2022-12-07T20:16:39;1.50;99.90
39277;DHT22;63149;48.086;-1.606;2022-12-07T20:19:09;1.50;99.90
39277;DHT22;63149;48.086;-1.606;2022-12-07T20:21:36;1.40;99.90
39277;DHT22;63149;48.086;-1.606;2022-12-07T20:24:05;1.30;99.90
39277;DHT22;63149;48.086;-1.606;2022-12-07T20:26:34;1.20;99.90
39277;DHT22;63149;48.086;-1.606;2022-12-07T20:29:04;1.30;99.90
39277;DHT22;63149;48.086;-1.606;2022-12-07T20:31:31;1.40;99.90
39277;DHT22;63149;48.086;-1.606;2022-12-07T20:33:58;1.20;99.90
39277;DHT22;63149;48.086;-1.606;2022-12-07T20:36:26;1.30;99.90
39277;DHT22;63149;48.086;-1.606;2022-12-07T20:38:53;1.30;99.90
39277;DHT22;63149;48.086;-1.606;2022-12-07T20:41:20;1.10;99.90
39277;DHT22;63149;48.086;-1.606;2022-12-07T20:44:06;0.90;99.90
39277;DHT22;63149;48.086;-1.606;2022-12-07T20:46:33;0.80;99.90
39277;DHT22;63149;48.086;-1.606;2022-12-07T20:49:00;0.90;99.90
39277;DHT22;63149;48.086;-1.606;2022-12-07T20:51:27;0.90;99.90
39277;DHT22;63149;48.086;-1.606;2022-12-07T20:53:55;0.80;99.90
39277;DHT22;63149;48.086;-1.606;2022-12-07T20:56:24;0.80;99.90
39277;DHT22;63149;48.086;-1.606;2022-12-07T20:58:52;0.90;99.90
39277;DHT22;63149;48.086;-1.606;2022-12-07T21:01:20;1.00;99.90
39277;DHT22;63149;48.086;-1.606;2022-12-07T21:03:47;1.10;99.90
39277;DHT22;63149;48.086;-1.606;2022-12-07T21:06:15;1.10;99.90
39277;DHT22;63149;48.086;-1.606;2022-12-07T21:08:43;1.10;99.90
39277;DHT22;63149;48.086;-1.606;2022-12-07T21:11:11;0.90;99.90
39277;DHT22;63149;48.086;-1.606;2022-12-07T21:13:39;0.90;99.90
39277;DHT22;63149;48.086;-1.606;2022-12-07T21:16:07;0.70;99.90
39277;DHT22;63149;48.086;-1.606;2022-12-07T21:18:36;0.70;99.90
39277;DHT22;63149;48.086;-1.606;2022-12-07T21:21:04;0.50;99.90
39277;DHT22;63149;48.086;-1.606;2022-12-07T21:23:31;0.50;99.90
39277;DHT22;63149;48.086;-1.606;2022-12-07T21:25:58;0.60;99.90
39277;DHT22;63149;48.086;-1.606;2022-12-07T21:28:25;0.80;99.90
39277;DHT22;63149;48.086;-1.606;2022-12-07T21:30:55;0.70;99.90
39277;DHT22;63149;48.086;-1.606;2022-12-07T21:33:23;0.80;99.90
39277;DHT22;63149;48.086;-1.606;2022-12-07T21:35:51;0.90;99.90
39277;DHT22;63149;48.086;-1.606;2022-12-07T21:38:18;0.90;99.90
39277;DHT22;63149;48.086;-1.606;2022-12-07T21:40:45;0.90;99.90
39277;DHT22;63149;48.086;-1.606;2022-12-07T21:43:12;1.00;99.90
39277;DHT22;63149;48.086;-1.606;2022-12-07T21:45:39;0.90;99.90
39277;DHT22;63149;48.086;-1.606;2022-12-07T21:48:07;0.80;99.90
39277;DHT22;63149;48.086;-1.606;2022-12-07T21:50:34;0.70;99.90
39277;DHT22;63149;48.086;-1.606;2022-12-07T21:53:04;0.70;99.90
39277;DHT22;63149;48.086;-1.606;2022-12-07T21:55:31;0.80;99.90
39277;DHT22;63149;48.086;-1.606;2022-12-07T21:57:58;0.60;99.90
39277;DHT22;63149;48.086;-1.606;2022-12-07T22:00:25;0.70;99.90
39277;DHT22;63149;48.086;-1.606;2022-12-07T22:02:52;0.80;99.90
39277;DHT22;63149;48.086;-1.606;2022-12-07T22:05:19;0.70;99.90